Denver, Colorado
Traffic Map
Current Weather Conditions
Denver, Colorado
Scattered Clouds
Scattered Clouds
34°
Feels Like: 27°
Wind Chill: 27° Ceiling: Unl
Heat Index: 34° Visibility: 10mi
Dew Point: 27° Wind: 8mph
Humidity: 74% Direction: 10° (N)
Pressure: 30.04in Gusts: 0mph
Raw Report DataKBKF 182358Z 01007KT 10SM FEW090 SCT200 01/M03 A3004 RMK AO2A SLP183 T00121030 10066 20012 52013
Traffic Incident Summary
Active as of:
Severity:
Category:
InformationThere was an issue retrieving the traffic information for this location. Please try a different location or try again shortly.
Advertisements
Track Severe Weather on mobile